Time;durP1;ratioP1;P1;durP2;ratioP2;P2;SDS_P1;SDS_P2;PMS_P1;PMS_P2;Temp;Humidity;BMP_temperature;BMP_pressure;BME280_temperature;BME280_humidity;BME280_pressure;Samples;Min_cycle;Max_cycle;Signal;HPM_P1;HPM_P2
2023/03/10 00:03:05;;;;;;;21.30;13.00;;;;;;;0.46;92.40;99142.67;105550;1257;97490;-77
2023/03/10 00:05:50;;;;;;;18.40;10.50;;;;;;;0.46;92.62;99140.25;105592;1263;100018;-79
2023/03/10 00:08:36;;;;;;;26.00;12.30;;;;;;;0.47;92.72;99146.64;105626;1263;99130;-77
2023/03/10 00:11:21;;;;;;;20.00;12.00;;;;;;;0.45;92.66;99141.69;105536;1261;97723;-77
2023/03/10 00:14:07;;;;;;;21.90;11.10;;;;;;;0.44;92.79;99135.66;105736;1263;96606;-77
2023/03/10 00:16:53;;;;;;;24.10;12.70;;;;;;;0.42;93.03;99133.93;105602;1260;98325;-77
2023/03/10 00:19:39;;;;;;;26.30;12.60;;;;;;;0.42;93.12;99131.03;105664;1263;100003;-78
2023/03/10 00:22:25;;;;;;;25.90;12.90;;;;;;;0.41;93.22;99127.21;105614;1264;99132;-77
2023/03/10 00:25:11;;;;;;;24.10;12.30;;;;;;;0.40;93.41;99131.06;105574;1271;97891;-78
2023/03/10 00:27:57;;;;;;;25.00;13.70;;;;;;;0.39;93.47;99127.96;105668;1261;96699;-77
2023/03/10 00:30:42;;;;;;;23.60;13.50;;;;;;;0.40;93.71;99119.64;105593;1263;97898;-77
2023/03/10 00:33:33;;;;;;;23.20;14.30;;;;;;;0.40;93.85;99121.55;105502;1260;101345;-77
2023/03/10 00:36:21;;;;;;;25.80;13.70;;;;;;;0.40;93.94;99116.14;105504;1260;99087;-78
2023/03/10 00:39:07;;;;;;;25.00;13.40;;;;;;;0.38;93.95;99110.35;105338;1258;99101;-77
2023/03/10 00:41:52;;;;;;;26.40;14.40;;;;;;;0.37;94.04;99105.90;105718;1262;96608;-77
2023/03/10 00:44:38;;;;;;;25.70;15.60;;;;;;;0.38;94.27;99105.58;105387;1258;96692;-77
2023/03/10 00:47:24;;;;;;;26.60;15.80;;;;;;;0.40;94.45;99104.48;105631;1264;100056;-78
2023/03/10 00:50:10;;;;;;;24.00;14.40;;;;;;;0.41;94.36;99103.20;105153;1263;99204;-76
2023/03/10 00:52:56;;;;;;;25.70;15.80;;;;;;;0.40;94.51;99097.81;105270;1262;98996;-77
2023/03/10 00:55:41;;;;;;;28.50;15.30;;;;;;;0.40;94.66;99085.06;105131;1263;97062;-78
2023/03/10 00:58:28;;;;;;;24.40;13.90;;;;;;;0.40;94.79;99089.17;105829;1263;96659;-77
2023/03/10 01:01:19;;;;;;;27.30;15.80;;;;;;;0.42;94.82;99084.15;105444;1261;100169;-77
2023/03/10 01:04:18;;;;;;;30.40;15.70;;;;;;;0.41;94.87;99076.31;105216;1261;99082;-76
2023/03/10 01:07:04;;;;;;;31.50;16.20;;;;;;;0.40;94.96;99069.04;105556;1257;97863;-77
2023/03/10 01:09:52;;;;;;;27.50;16.10;;;;;;;0.41;95.17;99067.16;105200;1260;97225;-78
2023/03/10 01:12:38;;;;;;;30.20;16.40;;;;;;;0.44;95.38;99062.02;105476;1258;97239;-77
2023/03/10 01:15:23;;;;;;;30.90;17.90;;;;;;;0.43;95.45;99058.31;105322;1264;100008;-77
2023/03/10 01:18:09;;;;;;;35.10;18.50;;;;;;;0.44;95.52;99055.06;105379;1266;99209;-77
2023/03/10 01:20:55;;;;;;;31.30;18.70;;;;;;;0.44;95.50;99051.98;105378;1261;98969;-79
2023/03/10 01:23:40;;;;;;;30.10;16.40;;;;;;;0.42;95.59;99045.46;105559;1264;96619;-78
2023/03/10 01:26:26;;;;;;;30.10;16.30;;;;;;;0.41;95.78;99045.04;105581;1258;96521;-78
2023/03/10 01:29:12;;;;;;;28.90;16.00;;;;;;;0.41;95.96;99043.96;105638;1257;101215;-78
2023/03/10 01:31:58;;;;;;;29.60;16.40;;;;;;;0.43;96.06;99038.71;105290;1258;99135;-77
2023/03/10 01:34:43;;;;;;;30.30;18.00;;;;;;;0.44;96.33;99035.58;105544;1261;97729;-77
2023/03/10 01:37:29;;;;;;;29.10;16.40;;;;;;;0.46;96.44;99034.30;105635;1263;97817;-77
2023/03/10 01:40:17;;;;;;;31.70;18.20;;;;;;;0.48;96.36;99025.90;105497;1257;96444;-77
2023/03/10 01:43:17;;;;;;;28.90;18.30;;;;;;;0.47;96.31;99014.21;105599;1260;99985;-77
2023/03/10 01:46:03;;;;;;;31.90;18.40;;;;;;;0.45;96.34;99007.91;105577;1261;100063;-78
2023/03/10 01:48:50;;;;;;;33.30;19.00;;;;;;;0.45;96.48;99005.08;105666;1271;99080;-77
2023/03/10 01:51:38;;;;;;;34.30;21.90;;;;;;;0.47;96.61;99002.65;105484;1264;96655;-78
2023/03/10 01:54:29;;;;;;;61.00;24.30;;;;;;;0.46;96.64;98992.86;105427;1259;97056;-78
2023/03/10 01:57:18;;;;;;;37.90;19.10;;;;;;;0.46;96.48;98970.98;107061;1266;101854;-79
2023/03/10 02:00:11;;;;;;;30.30;17.90;;;;;;;0.44;96.75;98962.35;105643;1260;100342;-78
2023/03/10 02:03:08;;;;;;;36.30;17.90;;;;;;;0.43;96.86;98957.01;105597;1260;97713;-78
2023/03/10 02:05:57;;;;;;;34.80;18.70;;;;;;;0.43;96.79;98959.64;105776;1263;96610;-78
2023/03/10 02:08:49;;;;;;;30.30;17.40;;;;;;;0.43;96.84;98961.61;105852;1260;96562;-78
2023/03/10 02:11:37;;;;;;;28.60;17.40;;;;;;;0.44;96.89;98960.11;105676;1263;100326;-78
2023/03/10 02:14:22;;;;;;;30.40;17.40;;;;;;;0.44;96.99;98956.06;105610;1260;100319;-78
2023/03/10 02:17:15;;;;;;;30.30;18.90;;;;;;;0.45;97.09;98950.77;105737;1262;97798;-78
2023/03/10 02:20:19;;;;;;;33.10;19.70;;;;;;;0.45;97.11;98939.23;105594;1265;96562;-79
2023/03/10 02:23:11;;;;;;;29.70;18.10;;;;;;;0.45;97.18;98934.00;105508;1259;97133;-79
2023/03/10 02:26:40;;;;;;;28.50;17.00;;;;;;;0.45;97.32;98929.43;105285;1261;100905;-77
2023/03/10 02:29:33;;;;;;;30.70;18.60;;;;;;;0.45;97.49;98919.29;105501;1263;99994;-77
2023/03/10 02:32:21;;;;;;;33.20;19.20;;;;;;;0.46;97.55;98915.23;105233;1262;97741;-77
2023/03/10 02:35:07;;;;;;;30.60;18.50;;;;;;;0.47;97.40;98916.22;105361;1260;97450;-78
2023/03/10 02:37:58;;;;;;;33.70;19.30;;;;;;;0.46;97.44;98913.48;105910;1260;96780;-77
2023/03/10 02:40:47;;;;;;;30.80;19.10;;;;;;;0.44;97.50;98913.55;105684;1260;99984;-78
2023/03/10 02:43:37;;;;;;;31.70;21.30;;;;;;;0.42;97.49;98905.55;104950;1264;100690;-78
2023/03/10 02:46:34;;;;;;;37.20;21.30;;;;;;;0.42;97.73;98901.30;105661;1263;97821;-78
2023/03/10 02:49:24;;;;;;;34.60;20.80;;;;;;;0.43;97.83;98895.41;105538;1259;96575;-77
2023/03/10 02:52:24;;;;;;;31.90;19.50;;;;;;;0.41;97.80;98894.36;105171;1264;96709;-77
2023/03/10 02:55:17;;;;;;;36.60;19.90;;;;;;;0.42;97.99;98880.42;105586;1261;100704;-78
2023/03/10 02:58:03;;;;;;;35.20;20.30;;;;;;;0.42;97.92;98872.50;105585;1263;99084;-77
2023/03/10 03:00:49;;;;;;;40.80;20.40;;;;;;;0.42;97.88;98868.27;105778;1263;97742;-77
2023/03/10 03:03:35;;;;;;;35.80;20.90;;;;;;;0.40;97.89;98863.73;106091;1260;96620;-77
2023/03/10 03:06:22;;;;;;;39.80;22.90;;;;;;;0.40;98.10;98857.25;105431;1259;96446;-78
2023/03/10 03:09:08;;;;;;;46.90;25.20;;;;;;;0.40;98.14;98850.64;105517;1262;100122;-77
2023/03/10 03:11:53;;;;;;;48.90;26.10;;;;;;;0.39;98.22;98840.00;105228;1260;99821;-79
2023/03/10 03:14:39;;;;;;;44.50;25.40;;;;;;;0.41;98.35;98825.64;105478;1263;97712;-77
2023/03/10 03:17:26;;;;;;;41.70;24.30;;;;;;;0.41;98.48;98817.16;105499;1261;96808;-78
2023/03/10 03:20:13;;;;;;;43.20;22.70;;;;;;;0.41;98.52;98812.98;105221;1260;96622;-77
2023/03/10 03:23:00;;;;;;;46.00;25.20;;;;;;;0.41;98.49;98808.70;105410;1266;101296;-77
2023/03/10 03:25:46;;;;;;;41.30;24.80;;;;;;;0.42;98.63;98810.38;105206;1267;100345;-77
2023/03/10 03:28:34;;;;;;;41.30;23.50;;;;;;;0.43;98.58;98804.64;105377;1262;99077;-78
2023/03/10 03:31:22;;;;;;;40.40;23.00;;;;;;;0.43;98.74;98805.52;105452;1262;97201;-78
2023/03/10 03:34:11;;;;;;;37.70;22.50;;;;;;;0.43;98.78;98801.29;105233;1260;97279;-77
2023/03/10 03:36:57;;;;;;;43.60;24.80;;;;;;;0.42;98.80;98802.84;105413;1262;101374;-77
2023/03/10 03:39:49;;;;;;;42.10;24.50;;;;;;;0.41;98.83;98798.20;105227;1262;99777;-78
2023/03/10 03:42:34;;;;;;;37.80;23.30;;;;;;;0.43;99.04;98796.42;105327;1264;98010;-78
2023/03/10 03:45:23;;;;;;;37.90;23.80;;;;;;;0.44;99.17;98793.45;105227;1263;97316;-78
2023/03/10 03:48:11;;;;;;;42.50;24.40;;;;;;;0.44;99.16;98788.02;105260;1263;97129;-78
2023/03/10 03:50:58;;;;;;;40.00;22.70;;;;;;;0.45;99.27;98782.31;105300;1265;101731;-78
2023/03/10 03:53:49;;;;;;;40.20;23.30;;;;;;;0.46;99.47;98780.97;105221;1260;99350;-77
2023/03/10 03:56:34;;;;;;;43.50;24.80;;;;;;;0.48;99.48;98772.86;105119;1260;98663;-78
2023/03/10 03:59:20;;;;;;;38.50;22.90;;;;;;;0.50;99.53;98764.73;105360;1260;96784;-79
2023/03/10 04:02:06;;;;;;;44.00;24.40;;;;;;;0.52;99.65;98764.30;105369;1262;98447;-78
2023/03/10 04:04:53;;;;;;;42.60;22.90;;;;;;;0.52;99.72;98757.23;105428;1264;100681;-78
2023/03/10 04:07:41;;;;;;;42.50;24.40;;;;;;;0.55;99.88;98755.05;105832;1260;100062;-79
2023/03/10 04:10:28;;;;;;;42.60;23.60;;;;;;;0.56;99.90;98755.91;105428;1261;97732;-78
2023/03/10 04:13:14;;;;;;;41.80;24.40;;;;;;;0.58;99.92;98757.46;105562;1260;96614;-77
2023/03/10 04:15:59;;;;;;;37.80;22.20;;;;;;;0.59;99.93;98755.75;105760;1260;97993;-78
2023/03/10 04:18:49;;;;;;;40.10;23.80;;;;;;;0.60;99.96;98752.33;105663;1262;101263;-78
2023/03/10 04:21:35;;;;;;;40.40;23.50;;;;;;;0.59;100.00;98750.69;105426;1260;99110;-77
2023/03/10 04:24:21;;;;;;;40.20;22.30;;;;;;;0.60;100.00;98741.42;105194;1259;97752;-78
2023/03/10 04:27:08;;;;;;;38.50;22.60;;;;;;;0.60;100.00;98735.95;105453;1264;96549;-78
2023/03/10 04:29:54;;;;;;;38.00;22.30;;;;;;;0.61;100.00;98728.86;105564;1264;96558;-78
2023/03/10 04:32:40;;;;;;;42.40;24.90;;;;;;;0.63;100.00;98711.98;105434;1262;100099;-78
2023/03/10 04:35:30;;;;;;;50.00;28.40;;;;;;;0.65;100.00;98696.30;105411;1267;100033;-77
2023/03/10 04:38:16;;;;;;;43.80;25.10;;;;;;;0.67;100.00;98689.55;105603;1260;99085;-77
2023/03/10 04:41:04;;;;;;;39.90;22.20;;;;;;;0.68;100.00;98683.23;105755;1262;96600;-79
2023/03/10 04:43:51;;;;;;;41.10;23.40;;;;;;;0.69;100.00;98674.44;105525;1260;96604;-78
2023/03/10 04:46:37;;;;;;;41.00;25.20;;;;;;;0.66;100.00;98661.02;105003;1261;101261;-77
2023/03/10 04:49:23;;;;;;;40.00;23.50;;;;;;;0.65;100.00;98649.16;105181;1262;99338;-77
2023/03/10 04:52:09;;;;;;;46.10;26.00;;;;;;;0.65;100.00;98641.69;104994;1260;97894;-77
2023/03/10 04:54:54;;;;;;;45.90;25.90;;;;;;;0.65;100.00;98646.70;105178;1262;97260;-78
2023/03/10 04:57:41;;;;;;;47.40;28.50;;;;;;;0.66;100.00;98656.52;105259;1264;97070;-78
2023/03/10 05:00:26;;;;;;;48.00;26.90;;;;;;;0.66;100.00;98658.95;105330;1264;100011;-77
2023/03/10 05:03:12;;;;;;;39.30;22.60;;;;;;;0.66;100.00;98651.17;105227;1260;99184;-77
2023/03/10 05:05:58;;;;;;;38.90;24.10;;;;;;;0.68;100.00;98646.25;105266;1259;97759;-77
2023/03/10 05:08:45;;;;;;;39.80;23.30;;;;;;;0.71;100.00;98639.58;105518;1267;97209;-77
2023/03/10 05:11:31;;;;;;;38.40;20.80;;;;;;;0.74;100.00;98643.82;105192;1266;97067;-77
2023/03/10 05:14:17;;;;;;;42.20;24.90;;;;;;;0.75;100.00;98638.58;105493;1260;100572;-78
2023/03/10 05:17:03;;;;;;;46.10;24.50;;;;;;;0.76;100.00;98625.70;105723;1262;99754;-79
2023/03/10 05:19:49;;;;;;;44.30;29.40;;;;;;;0.77;100.00;98619.77;105342;1262;98574;-79
2023/03/10 05:22:37;;;;;;;43.50;24.40;;;;;;;0.76;100.00;98609.65;105239;1260;97180;-77
2023/03/10 05:25:23;;;;;;;45.60;27.00;;;;;;;0.76;100.00;98606.09;104997;1260;97298;-76
2023/03/10 05:28:08;;;;;;;47.10;26.90;;;;;;;0.76;100.00;98602.80;105415;1265;99989;-78
2023/03/10 05:30:54;;;;;;;45.00;26.00;;;;;;;0.76;100.00;98599.81;105249;1263;100338;-78
2023/03/10 05:33:40;;;;;;;46.30;26.10;;;;;;;0.78;100.00;98602.05;105224;1262;98573;-78
2023/03/10 05:36:26;;;;;;;46.30;26.70;;;;;;;0.81;100.00;98603.91;105439;1262;96635;-77
2023/03/10 05:39:13;;;;;;;47.80;27.00;;;;;;;0.82;100.00;98596.23;105621;1262;96520;-77
2023/03/10 05:42:02;;;;;;;43.10;25.50;;;;;;;0.83;100.00;98591.49;105596;1259;101779;-78
2023/03/10 05:44:50;;;;;;;47.10;27.10;;;;;;;0.85;100.00;98584.12;105493;1260;100996;-77
2023/03/10 05:47:36;;;;;;;49.80;27.10;;;;;;;0.87;100.00;98585.50;105265;1262;99106;-77
2023/03/10 05:50:21;;;;;;;53.50;31.30;;;;;;;0.88;100.00;98584.39;105345;1257;96787;-77
2023/03/10 05:53:08;;;;;;;48.20;26.80;;;;;;;0.89;100.00;98578.16;105218;1264;97852;-78
2023/03/10 05:55:55;;;;;;;55.50;31.10;;;;;;;0.93;100.00;98575.64;105309;1259;100124;-77
2023/03/10 05:58:41;;;;;;;47.60;28.60;;;;;;;0.96;100.00;98577.92;105492;1262;99118;-77
2023/03/10 06:01:28;;;;;;;43.80;25.70;;;;;;;0.98;100.00;98582.44;105615;1260;98597;-77
2023/03/10 06:04:14;;;;;;;46.30;26.90;;;;;;;0.99;100.00;98573.25;105316;1261;96612;-78
2023/03/10 06:07:01;;;;;;;51.30;28.60;;;;;;;1.02;100.00;98571.58;105668;1260;98276;-77
2023/03/10 06:09:46;;;;;;;49.80;28.40;;;;;;;1.05;100.00;98576.45;105159;1260;100039;-77
2023/03/10 06:12:32;;;;;;;51.80;30.20;;;;;;;1.08;100.00;98575.65;105096;1259;99246;-76
2023/03/10 06:15:18;;;;;;;51.70;27.70;;;;;;;1.12;100.00;98570.05;105265;1260;98961;-77
2023/03/10 06:18:03;;;;;;;50.50;27.90;;;;;;;1.16;100.00;98563.95;105469;1259;97236;-77
2023/03/10 06:20:51;;;;;;;155.50;74.30;;;;;;;1.19;100.00;98561.75;105232;1260;96506;-77
2023/03/10 06:23:36;;;;;;;97.10;48.90;;;;;;;1.21;100.00;98559.23;105156;1263;100051;-78
2023/03/10 06:26:23;;;;;;;83.10;41.70;;;;;;;1.25;100.00;98557.30;105425;1259;99143;-78
2023/03/10 06:29:08;;;;;;;64.90;35.70;;;;;;;1.28;100.00;98551.30;105414;1260;97841;-77
2023/03/10 06:31:54;;;;;;;50.60;28.80;;;;;;;1.32;100.00;98542.92;105322;1262;96626;-77
2023/03/10 06:34:40;;;;;;;50.00;28.40;;;;;;;1.36;100.00;98536.63;105423;1263;97250;-78
2023/03/10 06:37:26;;;;;;;49.10;27.60;;;;;;;1.38;100.00;98533.05;105526;1260;100009;-77
2023/03/10 06:40:13;;;;;;;58.90;33.90;;;;;;;1.39;100.00;98529.23;105242;1260;99100;-77
2023/03/10 06:42:58;;;;;;;49.10;27.50;;;;;;;1.42;100.00;98523.79;105296;1260;98934;-77
2023/03/10 06:45:45;;;;;;;53.40;29.40;;;;;;;1.45;100.00;98521.99;105576;1262;97047;-78
2023/03/10 06:48:31;;;;;;;58.20;32.00;;;;;;;1.48;100.00;98522.87;105613;1259;97046;-77
2023/03/10 06:51:19;;;;;;;75.00;42.10;;;;;;;1.52;100.00;98516.96;105848;1260;101300;-78
2023/03/10 06:54:05;;;;;;;66.00;40.50;;;;;;;1.58;100.00;98510.06;105613;1265;99150;-78
2023/03/10 06:56:51;;;;;;;59.80;34.50;;;;;;;1.61;100.00;98505.15;105343;1262;97718;-78
2023/03/10 06:59:36;;;;;;;48.90;28.10;;;;;;;1.64;100.00;98501.14;105424;1262;96633;-77
2023/03/10 07:02:22;;;;;;;61.50;37.90;;;;;;;1.67;100.00;98490.05;105197;1262;97130;-78
2023/03/10 07:05:12;;;;;;;48.70;28.20;;;;;;;1.71;100.00;98484.83;105188;1260;99960;-78
2023/03/10 07:07:57;;;;;;;42.50;25.60;;;;;;;1.74;100.00;98490.77;105010;1262;99158;-77
2023/03/10 07:10:43;;;;;;;59.30;33.40;;;;;;;1.77;100.00;98495.45;105156;1259;99037;-77
2023/03/10 07:13:41;;;;;;;;;;;;;;;;;;;;;
2023/03/10 07:16:28;;;;;;;54.10;30.80;;;;;;;1.83;100.00;98499.91;105574;1264;98307;-82
2023/03/10 07:19:14;;;;;;;50.30;27.90;;;;;;;1.86;100.00;98499.95;105497;1267;101267;-75
2023/03/10 07:21:59;;;;;;;52.80;29.20;;;;;;;1.89;100.00;98497.42;105435;1262;99080;-76
2023/03/10 07:24:53;;;;;;;51.50;28.70;;;;;;;1.93;100.00;98492.33;105801;1259;99047;-90
2023/03/10 07:27:42;;;;;;;45.00;25.00;;;;;;;1.97;100.00;98488.19;106031;1262;97484;-84
2023/03/10 07:30:28;;;;;;;46.70;26.70;;;;;;;2.01;100.00;98477.90;106113;1260;96618;-83
2023/03/10 07:33:15;;;;;;;51.90;28.60;;;;;;;2.05;100.00;98476.89;106284;1259;100452;-83
2023/03/10 07:36:06;;;;;;;55.50;30.60;;;;;;;2.09;100.00;98472.47;106006;1262;99066;-82
2023/03/10 07:38:52;;;;;;;52.70;33.20;;;;;;;2.10;100.00;98465.38;106140;1262;97720;-82
2023/03/10 07:41:38;;;;;;;58.70;36.60;;;;;;;2.14;100.00;98467.53;106014;1260;96530;-83
2023/03/10 07:44:24;;;;;;;57.20;34.80;;;;;;;2.18;100.00;98462.42;106087;1265;96634;-82
2023/03/10 07:47:10;;;;;;;58.70;33.80;;;;;;;2.22;100.00;98454.74;106087;1262;99993;-84
2023/03/10 07:49:56;;;;;;;56.50;31.20;;;;;;;2.27;100.00;98446.47;106137;1258;99229;-83
2023/03/10 07:52:42;;;;;;;48.20;28.10;;;;;;;2.32;100.00;98444.74;106141;1260;97759;-82
2023/03/10 07:55:28;;;;;;;51.80;29.60;;;;;;;2.36;100.00;98435.47;106108;1262;96689;-83
2023/03/10 07:58:13;;;;;;;50.40;29.20;;;;;;;2.42;100.00;98435.41;106129;1260;98421;-83
2023/03/10 08:00:59;;;;;;;54.00;29.40;;;;;;;2.49;100.00;98431.58;105650;1264;100073;-77
2023/03/10 08:03:46;;;;;;;62.60;35.10;;;;;;;2.53;100.00;98429.80;105182;1260;99064;-75
2023/03/10 08:06:32;;;;;;;123.60;62.70;;;;;;;2.57;100.00;98429.51;105005;1261;98641;-75
2023/03/10 08:09:18;;;;;;;173.60;73.90;;;;;;;2.60;100.00;98429.31;105107;1258;96625;-75
2023/03/10 08:12:04;;;;;;;242.60;108.00;;;;;;;2.63;100.00;98424.35;105084;1262;96577;-76
2023/03/10 08:14:51;;;;;;;166.10;93.40;;;;;;;2.65;100.00;98424.91;105060;1260;101379;-75
2023/03/10 08:17:36;;;;;;;197.00;104.70;;;;;;;2.66;100.00;98417.77;105507;1262;101244;-76
2023/03/10 08:20:22;;;;;;;156.10;78.80;;;;;;;2.66;100.00;98413.81;105290;1258;97823;-76
2023/03/10 08:23:07;;;;;;;132.80;70.50;;;;;;;2.65;100.00;98410.69;105302;1260;98028;-77
2023/03/10 08:25:53;;;;;;;157.90;85.80;;;;;;;2.66;100.00;98404.80;105132;1260;96590;-76
2023/03/10 08:28:39;;;;;;;93.20;57.00;;;;;;;2.69;100.00;98400.46;105557;1259;100005;-87
2023/03/10 08:31:25;;;;;;;60.10;35.80;;;;;;;2.75;100.00;98396.61;106199;1262;100334;-85
2023/03/10 08:34:16;;;;;;;54.10;31.30;;;;;;;2.79;100.00;98396.45;106393;1262;97705;-82
2023/03/10 08:37:04;;;;;;;56.30;32.20;;;;;;;2.84;100.00;98392.75;106016;1263;96596;-82
2023/03/10 08:39:52;;;;;;;51.90;29.80;;;;;;;2.92;100.00;98386.86;106158;1260;96620;-82
2023/03/10 08:42:38;;;;;;;57.50;31.90;;;;;;;3.02;100.00;98383.97;105599;1258;101254;-77
2023/03/10 08:45:24;;;;;;;55.80;28.00;;;;;;;3.13;100.00;98380.14;105308;1259;99083;-75
2023/03/10 08:48:09;;;;;;;54.90;29.40;;;;;;;3.24;100.00;98377.45;106028;1262;97834;-76
2023/03/10 08:50:56;;;;;;;54.80;29.40;;;;;;;3.35;100.00;98382.19;105348;1259;96843;-76
2023/03/10 08:53:48;;;;;;;49.30;29.10;;;;;;;3.44;100.00;98379.33;105233;1260;97547;-75
2023/03/10 08:56:34;;;;;;;53.80;30.00;;;;;;;3.51;100.00;98373.78;105856;1260;101381;-83
2023/03/10 08:59:19;;;;;;;54.30;27.10;;;;;;;3.57;100.00;98372.27;105079;1260;99179;-74
2023/03/10 09:02:05;;;;;;;53.50;28.40;;;;;;;3.62;100.00;98370.29;105113;1259;98972;-74
2023/03/10 09:04:51;;;;;;;53.60;29.70;;;;;;;3.67;100.00;98369.13;105155;1262;96997;-75
2023/03/10 09:07:36;;;;;;;50.40;27.70;;;;;;;3.71;100.00;98365.69;105233;1259;97941;-74
2023/03/10 09:10:22;;;;;;;48.40;28.80;;;;;;;3.77;100.00;98366.69;105173;1260;99993;-74
2023/03/10 09:13:08;;;;;;;58.60;30.50;;;;;;;3.83;100.00;98365.12;105155;1260;100136;-74
2023/03/10 09:15:54;;;;;;;55.00;32.10;;;;;;;3.91;100.00;98358.88;105081;1265;97718;-75
2023/03/10 09:18:40;;;;;;;51.60;29.80;;;;;;;3.98;100.00;98351.44;105241;1262;96608;-75
2023/03/10 09:21:28;;;;;;;54.80;30.70;;;;;;;4.04;100.00;98347.91;105375;1259;97126;-75
2023/03/10 09:24:13;;;;;;;54.50;29.10;;;;;;;4.09;100.00;98342.79;104994;1262;101246;-76
2023/03/10 09:26:59;;;;;;;51.10;28.60;;;;;;;4.15;100.00;98342.64;105162;1259;99056;-76
2023/03/10 09:29:44;;;;;;;49.50;27.70;;;;;;;4.21;100.00;98337.08;105138;1262;97795;-75
2023/03/10 09:32:30;;;;;;;51.30;28.40;;;;;;;4.26;100.00;98337.58;105121;1260;96602;-75
2023/03/10 09:35:16;;;;;;;57.00;28.70;;;;;;;4.32;100.00;98334.88;105188;1260;98094;-86
2023/03/10 09:38:02;;;;;;;49.00;27.80;;;;;;;4.37;100.00;98330.29;105187;1260;101605;-76
2023/03/10 09:40:56;;;;;;;48.90;27.00;;;;;;;4.44;100.00;98327.67;105296;1260;99144;-75
2023/03/10 09:43:49;;;;;;;51.00;27.20;;;;;;;4.50;100.00;98324.75;105145;1262;97813;-76
2023/03/10 09:46:49;;;;;;;44.00;25.90;;;;;;;4.58;100.00;98322.40;105151;1259;96627;-76
2023/03/10 09:49:39;;;;;;;50.10;28.50;;;;;;;4.68;100.00;98314.67;105086;1262;98293;-76
2023/03/10 09:52:42;;;;;;;54.40;29.90;;;;;;;4.80;100.00;98307.08;105259;1263;99989;-76
2023/03/10 09:55:39;;;;;;;49.10;27.40;;;;;;;4.91;100.00;98303.44;105087;1259;100848;-75
2023/03/10 09:58:38;;;;;;;44.50;26.20;;;;;;;5.02;100.00;98305.83;105141;1262;97722;-75
2023/03/10 10:01:28;;;;;;;49.50;28.00;;;;;;;5.14;100.00;98307.48;105281;1260;96562;-76
2023/03/10 10:04:26;;;;;;;49.90;27.80;;;;;;;5.25;100.00;98300.83;105198;1260;96613;-75
2023/03/10 10:07:21;;;;;;;51.50;26.10;;;;;;;5.34;100.00;98292.99;105645;1262;102141;-77
2023/03/10 10:10:19;;;;;;;49.10;26.50;;;;;;;5.44;100.00;98284.02;105385;1262;100303;-77
2023/03/10 10:13:15;;;;;;;39.60;23.40;;;;;;;5.55;100.00;98282.96;105368;1260;97847;-78
2023/03/10 10:16:22;;;;;;;38.80;21.50;;;;;;;5.66;100.00;98284.65;105335;1259;96601;-78
2023/03/10 10:19:19;;;;;;;39.20;20.80;;;;;;;5.79;100.00;98286.95;105383;1262;96796;-77
2023/03/10 10:22:23;;;;;;;34.70;20.20;;;;;;;5.92;100.00;98282.98;105458;1259;101426;-78
2023/03/10 10:25:14;;;;;;;38.80;20.20;;;;;;;6.05;100.00;98279.98;105782;1262;100395;-85
2023/03/10 10:28:01;;;;;;;;;;;;;;;6.18;100.00;98280.11;106168;1260;98997;-80
2023/03/10 10:30:47;;;;;;;30.00;16.70;;;;;;;6.28;100.00;98278.31;106025;1260;96824;-82
2023/03/10 10:33:50;;;;;;;26.90;15.70;;;;;;;6.37;100.00;98283.77;106041;1260;97038;-82
2023/03/10 10:36:49;;;;;;;28.70;16.70;;;;;;;6.47;100.00;98272.41;106019;1259;101247;-76
2023/03/10 10:39:42;;;;;;;29.90;15.70;;;;;;;6.56;100.00;98276.45;105184;1260;100326;-76
2023/03/10 10:42:29;;;;;;;24.80;14.60;;;;;;;6.64;100.00;98273.64;105567;1258;98558;-81
2023/03/10 10:45:31;;;;;;;29.90;14.80;;;;;;;6.73;100.00;98274.30;106062;1260;98508;-80
2023/03/10 10:48:34;;;;;;;25.50;14.60;;;;;;;6.82;100.00;98279.58;106342;1259;97362;-81
2023/03/10 10:51:28;;;;;;;24.30;13.90;;;;;;;6.90;100.00;98270.21;105154;1262;101194;-74
2023/03/10 10:54:28;;;;;;;27.30;13.90;;;;;;;6.99;100.00;98270.48;105280;1258;99155;-75
2023/03/10 10:57:19;;;;;;;21.70;13.20;;;;;;;7.09;100.00;98268.33;105202;1263;99193;-75
2023/03/10 11:00:27;;;;;;;21.10;12.10;;;;;;;7.19;100.00;98263.59;105615;1258;96622;-76
2023/03/10 11:03:27;;;;;;;24.70;13.50;;;;;;;7.32;100.00;98260.79;105194;1262;97270;-75
2023/03/10 11:06:26;;;;;;;23.10;12.70;;;;;;;7.45;100.00;98256.98;105563;1260;100796;-76
2023/03/10 11:09:19;;;;;;;20.40;12.70;;;;;;;7.56;100.00;98260.83;105038;1264;99791;-76
2023/03/10 11:12:37;;;;;;;23.60;12.00;;;;;;;7.68;100.00;98253.05;105132;1259;97689;-76
2023/03/10 11:15:34;;;;;;;22.10;11.80;;;;;;;7.80;100.00;98245.55;105114;1262;97808;-78
2023/03/10 11:18:22;;;;;;;27.60;11.70;;;;;;;7.91;100.00;98238.88;105102;1265;97135;-76
2023/03/10 11:21:16;;;;;;;20.50;11.80;;;;;;;7.99;100.00;98233.39;105938;1260;100800;-79
2023/03/10 11:24:47;;;;;;;18.50;10.50;;;;;;;8.07;100.00;98233.80;106204;1262;99115;-87
2023/03/10 11:27:49;;;;;;;30.40;10.90;;;;;;;8.14;100.00;98224.88;105451;1260;98725;-79
2023/03/10 11:30:37;;;;;;;22.00;11.30;;;;;;;8.19;100.00;98223.67;106230;1264;96664;-78
2023/03/10 11:33:34;;;;;;;16.80;11.20;;;;;;;8.24;100.00;98219.39;105596;1262;96719;-79
2023/03/10 11:36:43;;;;;;;18.50;11.30;;;;;;;8.30;100.00;98207.54;105834;1260;101804;-84
2023/03/10 11:39:42;;;;;;;21.30;11.40;;;;;;;8.34;100.00;98208.29;105968;1260;101426;-78
2023/03/10 11:42:30;;;;;;;20.10;11.60;;;;;;;8.39;100.00;98206.69;105502;1260;97659;-79
2023/03/10 11:45:22;;;;;;;21.50;12.40;;;;;;;8.46;100.00;98206.90;105339;1262;96616;-77
2023/03/10 11:48:26;;;;;;;21.20;11.30;;;;;;;8.61;100.00;98203.37;105759;1262;96518;-84
2023/03/10 11:51:23;;;;;;;18.60;9.80;;;;;;;8.81;100.00;98201.63;106467;1260;100018;-86
2023/03/10 11:54:14;;;;;;;18.20;9.40;;;;;;;8.99;100.00;98198.77;106036;1259;99834;-84
2023/03/10 11:57:08;;;;;;;17.90;9.60;;;;;;;9.14;100.00;98197.59;106357;1259;99030;-80
2023/03/10 11:59:58;;;;;;;19.20;8.00;;;;;;;9.26;100.00;98200.30;106663;1259;96615;-80
2023/03/10 12:03:18;;;;;;;11.00;8.00;;;;;;;9.39;100.00;98204.29;106372;1262;97225;-77
2023/03/10 12:06:13;;;;;;;17.40;8.00;;;;;;;9.52;100.00;98201.95;106449;1260;101391;-87
2023/03/10 12:09:01;;;;;;;15.00;7.80;;;;;;;9.64;100.00;98200.24;106430;1262;101265;-85
2023/03/10 12:12:35;;;;;;;16.80;8.30;;;;;;;9.73;100.00;98194.01;106134;1262;98331;-88
2023/03/10 12:15:34;;;;;;;12.50;8.20;;;;;;;9.81;100.00;98193.78;106377;1260;96603;-82
2023/03/10 12:18:23;;;;;;;14.60;8.20;;;;;;;9.87;100.00;98192.02;106464;1259;96814;-90
2023/03/10 12:21:14;;;;;;;15.10;7.90;;;;;;;9.91;100.00;98188.86;106514;1259;100013;-85
2023/03/10 12:24:03;;;;;;;14.80;7.70;;;;;;;9.94;100.00;98184.05;106232;1260;100477;-86
2023/03/10 12:27:02;;;;;;;14.70;7.30;;;;;;;9.98;100.00;98188.25;106286;1264;98989;-80
2023/03/10 12:29:48;;;;;;;16.30;7.70;;;;;;;10.03;100.00;98189.52;106132;1259;96613;-83
2023/03/10 12:32:46;;;;;;;14.60;7.00;;;;;;;10.12;100.00;98192.42;106453;1260;95804;-88
2023/03/10 12:35:46;;;;;;;13.70;6.10;;;;;;;10.26;100.00;98180.40;106311;1260;101192;-83
2023/03/10 12:38:50;;;;;;;13.20;6.80;;;;;;;10.40;100.00;98179.61;106564;1259;99802;-81
2023/03/10 12:41:53;;;;;;;16.10;6.00;;;;;;;10.52;100.00;98177.77;106290;1260;97714;-78
2023/03/10 12:45:16;;;;;;;10.40;5.10;;;;;;;10.63;100.00;98178.19;105670;1260;96718;-86
2023/03/10 12:48:10;;;;;;;13.00;6.30;;;;;;;10.69;100.00;98174.30;106234;1259;98219;-77
2023/03/10 12:51:03;;;;;;;12.90;5.90;;;;;;;10.72;99.93;98169.12;105971;1261;100235;-84
2023/03/10 12:54:05;;;;;;;19.70;7.50;;;;;;;10.75;99.33;98172.42;105937;1260;99481;-81
2023/03/10 12:57:32;;;;;;;12.90;6.00;;;;;;;10.78;99.00;98173.27;106286;1259;97765;-80